Terminal Aerodrome Forecast
Issued by NWS

Home | Current Version | Previous Version | Text Only | Print | Product List | Glossary On
Versions: 1 2 3 4 5 6 7 8 9 10 11 12 13 14 15 16 17 18 19 20
142
FTUS44 KCRP 220530
TAFALI
TAF
KALI 220530Z 2206/2306 31015G20KT P6SM SKC
     FM220800 30020G27KT P6SM SKC WS015/32060KT
     FM221300 30022G30KT P6SM SKC WS015/32055KT
     FM221600 32029G40KT P6SM SKC
     FM222300 32018G26KT P6SM SKC
     FM230000 31009KT P6SM SKC=

USA.gov is the U.S. government's official web portal to all federal, state and local government web resources and services.